Time;durP1;ratioP1;P1;durP2;ratioP2;P2;SDS_P1;SDS_P2;PMS_P1;PMS_P2;Temp;Humidity;BMP_temperature;BMP_pressure;BME280_temperature;BME280_humidity;BME280_pressure;Samples;Min_cycle;Max_cycle;Signal;HPM_P1;HPM_P2
2022/09/24 00:01:57;;;;;;;7.63;3.70;;;;;;;;;;4991173;28;20048;-68
2022/09/24 00:04:24;;;;;;;5.07;3.70;;;;;;;;;;4997556;28;20033;-65
2022/09/24 00:06:49;;;;;;;6.30;3.38;;;;;;;;;;5005985;28;20088;-66
2022/09/24 00:09:18;;;;;;;7.15;3.90;;;;;;;;;;5001041;28;20046;-68
2022/09/24 00:11:44;;;;;;;6.03;3.63;;;;;;;;;;5002892;28;20053;-59
2022/09/24 00:14:10;;;;;;;6.75;3.30;;;;;;;;;;4999266;28;20042;-60
2022/09/24 00:16:37;;;;;;;14.05;3.70;;;;;;;;;;5004168;28;20607;-69
2022/09/24 00:19:04;;;;;;;4.40;3.38;;;;;;;;;;5004133;28;20402;-67
2022/09/24 00:21:31;;;;;;;4.45;3.38;;;;;;;;;;5000269;28;20058;-66
2022/09/24 00:24:05;;;;;;;4.55;3.80;;;;;;;;;;5005264;28;20077;-66
2022/09/24 00:26:49;;;;;;;5.25;4.00;;;;;;;;;;5003668;28;20042;-67
2022/09/24 00:29:22;;;;;;;7.05;3.40;;;;;;;;;;4999906;28;20058;-68
2022/09/24 00:31:49;;;;;;;4.50;3.00;;;;;;;;;;5008439;28;20100;-68
2022/09/24 00:34:16;;;;;;;6.72;3.20;;;;;;;;;;4998477;28;20374;-67
2022/09/24 00:36:41;;;;;;;4.10;3.42;;;;;;;;;;4990414;28;20113;-59
2022/09/24 00:39:07;;;;;;;4.93;3.38;;;;;;;;;;4991246;28;20314;-60
2022/09/24 00:41:34;;;;;;;5.43;3.42;;;;;;;;;;4991250;28;20050;-59
2022/09/24 00:44:20;;;;;;;9.98;3.35;;;;;;;;;;4994025;28;20080;-60
2022/09/24 00:46:46;;;;;;;4.50;3.38;;;;;;;;;;4994029;28;20038;-59
2022/09/24 00:49:17;;;;;;;6.68;3.17;;;;;;;;;;4990328;28;20045;-59
2022/09/24 00:51:46;;;;;;;4.03;3.10;;;;;;;;;;4990556;28;20041;-59
2022/09/24 00:54:16;;;;;;;5.28;3.40;;;;;;;;;;4997802;28;20084;-59
2022/09/24 00:56:43;;;;;;;7.53;3.35;;;;;;;;;;4996729;28;20119;-59
2022/09/24 00:59:11;;;;;;;5.38;3.63;;;;;;;;;;4997067;28;20042;-59
2022/09/24 01:01:36;;;;;;;7.63;3.95;;;;;;;;;;4997076;28;20146;-58
2022/09/24 01:04:05;;;;;;;5.60;3.35;;;;;;;;;;5000470;28;20482;-58
2022/09/24 01:06:30;;;;;;;7.80;3.35;;;;;;;;;;4997654;28;20041;-57
2022/09/24 01:08:57;;;;;;;6.25;3.67;;;;;;;;;;4993383;28;20050;-58
2022/09/24 01:11:34;;;;;;;6.07;3.50;;;;;;;;;;4991418;28;20050;-58
2022/09/24 01:14:13;;;;;;;6.25;3.13;;;;;;;;;;4996612;28;20061;-58
2022/09/24 01:17:00;;;;;;;8.55;3.80;;;;;;;;;;4994010;28;20050;-57
2022/09/24 01:19:32;;;;;;;7.10;3.40;;;;;;;;;;4992498;28;20488;-54
2022/09/24 01:22:03;;;;;;;5.13;3.10;;;;;;;;;;4991861;28;20038;-59
2022/09/24 01:24:40;;;;;;;5.47;3.03;;;;;;;;;;4990429;28;20472;-59
2022/09/24 01:27:18;;;;;;;5.55;3.00;;;;;;;;;;5004568;28;20052;-60
2022/09/24 01:30:05;;;;;;;4.75;3.03;;;;;;;;;;5004335;28;20046;-58
2022/09/24 01:32:51;;;;;;;5.57;2.80;;;;;;;;;;4998931;28;20133;-57
2022/09/24 01:35:42;;;;;;;6.90;3.00;;;;;;;;;;4999773;28;20128;-62
2022/09/24 01:38:13;;;;;;;3.97;2.92;;;;;;;;;;4994865;28;20050;-58
2022/09/24 01:40:39;;;;;;;6.18;3.00;;;;;;;;;;4991578;28;20046;-60
2022/09/24 01:43:09;;;;;;;5.22;3.00;;;;;;;;;;4998843;28;20046;-59
2022/09/24 01:45:37;;;;;;;6.65;2.95;;;;;;;;;;4996774;28;20049;-59
2022/09/24 01:48:04;;;;;;;5.80;2.88;;;;;;;;;;4995663;28;20378;-57
2022/09/24 01:50:36;;;;;;;5.00;3.22;;;;;;;;;;4992572;28;20065;-58
2022/09/24 01:53:03;;;;;;;6.93;2.72;;;;;;;;;;4992848;28;20117;-58
2022/09/24 01:55:34;;;;;;;4.35;2.60;;;;;;;;;;4994013;28;20049;-59
2022/09/24 01:58:13;;;;;;;7.15;3.53;;;;;;;;;;4994308;28;20029;-56
2022/09/24 02:00:43;;;;;;;4.43;3.10;;;;;;;;;;5003375;28;20052;-59
2022/09/24 02:03:20;;;;;;;5.50;2.70;;;;;;;;;;5005540;28;20058;-58
2022/09/24 02:06:04;;;;;;;3.97;2.70;;;;;;;;;;5002499;28;20129;-58
2022/09/24 02:08:38;;;;;;;4.80;2.97;;;;;;;;;;5008917;28;20057;-62
2022/09/24 02:11:13;;;;;;;4.32;2.85;;;;;;;;;;5008882;28;20124;-64
2022/09/24 02:13:53;;;;;;;4.20;2.53;;;;;;;;;;5005883;28;20053;-61
2022/09/24 02:16:27;;;;;;;9.52;3.33;;;;;;;;;;5006210;28;20384;-58
2022/09/24 02:18:57;;;;;;;4.38;2.63;;;;;;;;;;5002690;28;20033;-58
2022/09/24 02:21:23;;;;;;;8.00;3.03;;;;;;;;;;5002167;28;20054;-60
2022/09/24 02:24:01;;;;;;;3.83;2.70;;;;;;;;;;5007938;28;20046;-58
2022/09/24 02:26:28;;;;;;;4.22;2.97;;;;;;;;;;5004019;28;20523;-59
2022/09/24 02:28:53;;;;;;;4.53;3.05;;;;;;;;;;4999389;28;20092;-57
2022/09/24 02:31:27;;;;;;;4.22;2.70;;;;;;;;;;4983185;28;20113;-59
2022/09/24 02:36:40;;;;;;;4.43;2.67;;;;;;;;;;4995784;28;20455;-57
2022/09/24 02:39:06;;;;;;;5.45;3.00;;;;;;;;;;4996461;28;20069;-55
2022/09/24 02:41:32;;;;;;;4.53;2.60;;;;;;;;;;4998076;28;20578;-59
2022/09/24 02:43:58;;;;;;;5.93;2.78;;;;;;;;;;4995041;28;20092;-59
2022/09/24 02:46:23;;;;;;;6.18;2.72;;;;;;;;;;4996995;28;20405;-58
2022/09/24 02:48:49;;;;;;;3.58;2.42;;;;;;;;;;4998473;28;20451;-58
2022/09/24 02:51:14;;;;;;;3.30;2.30;;;;;;;;;;4995897;28;20042;-56
2022/09/24 02:53:40;;;;;;;3.53;2.17;;;;;;;;;;4994631;28;20045;-59
2022/09/24 02:56:06;;;;;;;4.55;2.53;;;;;;;;;;5001472;28;20046;-58
2022/09/24 02:58:32;;;;;;;3.65;2.25;;;;;;;;;;4995410;28;20065;-59
2022/09/24 03:00:58;;;;;;;4.30;2.53;;;;;;;;;;4995554;28;20511;-57
2022/09/24 03:03:23;;;;;;;2.78;2.30;;;;;;;;;;4993100;28;20046;-57
2022/09/24 03:05:51;;;;;;;6.22;2.53;;;;;;;;;;4995716;28;20034;-61
2022/09/24 03:08:18;;;;;;;6.47;2.58;;;;;;;;;;4992106;28;20073;-58
2022/09/24 03:10:43;;;;;;;6.30;2.53;;;;;;;;;;4991682;28;20133;-68
2022/09/24 03:13:09;;;;;;;2.67;2.22;;;;;;;;;;4991888;28;20036;-68
2022/09/24 03:15:35;;;;;;;2.10;1.90;;;;;;;;;;4996898;28;20092;-68
2022/09/24 03:18:00;;;;;;;5.30;2.58;;;;;;;;;;4995861;28;20062;-68
2022/09/24 03:20:25;;;;;;;4.05;2.20;;;;;;;;;;4995572;28;20105;-68
2022/09/24 03:22:51;;;;;;;2.85;2.20;;;;;;;;;;4994392;28;20069;-69
2022/09/24 03:25:17;;;;;;;2.92;2.13;;;;;;;;;;4989125;28;20038;-68
2022/09/24 03:27:43;;;;;;;3.42;2.47;;;;;;;;;;4993525;28;20030;-68
2022/09/24 03:32:52;;;;;;;3.42;2.53;;;;;;;;;;5000818;28;20124;-68
2022/09/24 03:35:18;;;;;;;3.45;2.15;;;;;;;;;;4996493;28;20472;-69
2022/09/24 03:37:44;;;;;;;2.95;2.30;;;;;;;;;;4996195;28;20070;-68
2022/09/24 03:40:09;;;;;;;4.05;2.42;;;;;;;;;;5001529;28;20026;-67
2022/09/24 03:42:35;;;;;;;5.03;2.45;;;;;;;;;;4993533;28;20033;-70
2022/09/24 03:45:00;;;;;;;2.40;1.90;;;;;;;;;;4997224;28;20072;-69
2022/09/24 03:47:26;;;;;;;3.72;2.30;;;;;;;;;;4995648;28;20433;-69
2022/09/24 03:49:52;;;;;;;3.03;2.15;;;;;;;;;;4992624;28;20054;-69
2022/09/24 03:52:18;;;;;;;4.10;2.08;;;;;;;;;;4996959;28;20552;-71
2022/09/24 03:54:43;;;;;;;13.27;2.60;;;;;;;;;;4998292;28;20026;-71
2022/09/24 03:57:08;;;;;;;3.47;2.10;;;;;;;;;;5001293;28;20050;-70
2022/09/24 03:59:34;;;;;;;4.13;2.30;;;;;;;;;;4993108;28;20081;-69
2022/09/24 04:01:59;;;;;;;3.80;2.38;;;;;;;;;;4994832;28;20116;-69
2022/09/24 04:04:24;;;;;;;2.75;2.40;;;;;;;;;;4995499;28;20036;-68
2022/09/24 04:06:51;;;;;;;3.08;2.40;;;;;;;;;;4997233;28;20041;-68
2022/09/24 04:09:17;;;;;;;4.68;2.25;;;;;;;;;;4996660;28;20057;-69
2022/09/24 04:11:42;;;;;;;3.90;2.50;;;;;;;;;;4998978;28;20058;-71
2022/09/24 04:14:08;;;;;;;2.85;2.50;;;;;;;;;;4995475;28;20111;-69
2022/09/24 04:16:35;;;;;;;3.22;2.78;;;;;;;;;;4999570;28;20153;-72
2022/09/24 04:19:00;;;;;;;6.53;2.50;;;;;;;;;;5001082;28;20040;-70
2022/09/24 04:21:26;;;;;;;4.63;2.45;;;;;;;;;;4996441;28;20491;-69
2022/09/24 04:23:51;;;;;;;3.70;2.58;;;;;;;;;;5005891;28;20053;-69
2022/09/24 04:26:17;;;;;;;4.57;2.65;;;;;;;;;;5000943;28;20045;-69
2022/09/24 04:28:42;;;;;;;3.15;2.85;;;;;;;;;;4997130;28;20097;-69
2022/09/24 04:31:08;;;;;;;7.65;2.78;;;;;;;;;;5000067;28;20049;-69
2022/09/24 04:33:33;;;;;;;3.40;2.88;;;;;;;;;;4992389;28;20069;-70
2022/09/24 04:35:58;;;;;;;3.55;2.50;;;;;;;;;;5002034;28;20064;-69
2022/09/24 04:38:24;;;;;;;2.50;2.30;;;;;;;;;;4997359;28;20169;-70
2022/09/24 04:40:49;;;;;;;6.00;2.90;;;;;;;;;;4997927;28;20459;-69
2022/09/24 04:43:16;;;;;;;5.45;2.70;;;;;;;;;;4995624;28;20068;-68
2022/09/24 04:45:44;;;;;;;3.00;2.22;;;;;;;;;;4994670;28;21397;-60
2022/09/24 04:48:10;;;;;;;9.45;3.00;;;;;;;;;;4991547;28;20053;-60
2022/09/24 04:50:37;;;;;;;9.23;2.72;;;;;;;;;;4987890;28;20041;-60
2022/09/24 04:53:03;;;;;;;4.47;2.60;;;;;;;;;;4992735;28;20120;-61
2022/09/24 04:55:30;;;;;;;4.18;2.47;;;;;;;;;;4992747;28;20517;-58
2022/09/24 04:57:57;;;;;;;4.45;2.60;;;;;;;;;;4993587;28;20042;-60
2022/09/24 05:00:23;;;;;;;4.07;2.70;;;;;;;;;;4992368;28;20460;-57
2022/09/24 05:02:58;;;;;;;6.72;2.70;;;;;;;;;;4994506;28;20042;-59
2022/09/24 05:05:24;;;;;;;2.60;2.17;;;;;;;;;;4991977;28;20105;-60
2022/09/24 05:07:50;;;;;;;3.63;2.63;;;;;;;;;;4990515;28;20050;-61
2022/09/24 05:10:15;;;;;;;3.78;2.85;;;;;;;;;;4985043;28;20056;-60
2022/09/24 05:12:40;;;;;;;4.47;2.65;;;;;;;;;;4971279;28;21828;-62
2022/09/24 05:15:07;;;;;;;4.22;2.80;;;;;;;;;;4972456;28;20046;-59
2022/09/24 05:17:32;;;;;;;4.03;2.75;;;;;;;;;;4982341;28;20046;-61
2022/09/24 05:19:58;;;;;;;8.63;2.90;;;;;;;;;;4993297;28;20408;-61
2022/09/24 05:22:27;;;;;;;3.17;2.58;;;;;;;;;;4990424;28;20038;-61
2022/09/24 05:24:53;;;;;;;3.80;2.80;;;;;;;;;;4992918;28;20052;-60
2022/09/24 05:27:18;;;;;;;3.72;2.60;;;;;;;;;;4988826;28;20052;-60
2022/09/24 05:29:44;;;;;;;4.13;2.60;;;;;;;;;;4993030;28;20046;-59
2022/09/24 05:32:12;;;;;;;4.28;2.67;;;;;;;;;;4989770;28;20433;-62
2022/09/24 05:34:40;;;;;;;4.38;2.50;;;;;;;;;;4992020;28;20137;-59
2022/09/24 05:37:05;;;;;;;4.68;2.90;;;;;;;;;;4989304;28;20437;-62
2022/09/24 05:39:31;;;;;;;5.63;2.78;;;;;;;;;;4987570;28;20069;-60
2022/09/24 05:41:57;;;;;;;5.47;3.10;;;;;;;;;;4991331;28;20050;-60
2022/09/24 05:44:22;;;;;;;4.47;2.67;;;;;;;;;;4987552;28;20073;-60
2022/09/24 05:46:49;;;;;;;5.93;2.72;;;;;;;;;;4993776;28;20045;-59
2022/09/24 05:49:14;;;;;;;4.38;2.97;;;;;;;;;;4999293;28;20390;-60
2022/09/24 05:51:40;;;;;;;4.65;3.25;;;;;;;;;;4996984;28;20033;-61
2022/09/24 05:54:05;;;;;;;9.77;3.17;;;;;;;;;;4994184;28;20050;-60
2022/09/24 05:56:30;;;;;;;4.50;2.83;;;;;;;;;;4995331;28;20054;-59
2022/09/24 05:58:56;;;;;;;6.45;3.03;;;;;;;;;;4990387;28;20042;-60
2022/09/24 06:01:21;;;;;;;3.50;2.45;;;;;;;;;;4996101;28;20033;-59
2022/09/24 06:03:47;;;;;;;8.10;3.28;;;;;;;;;;4994240;28;20138;-59
2022/09/24 06:06:13;;;;;;;5.50;3.00;;;;;;;;;;4993171;28;20072;-65
2022/09/24 06:08:38;;;;;;;6.20;2.92;;;;;;;;;;4992931;28;20120;-65
2022/09/24 06:11:07;;;;;;;4.28;3.20;;;;;;;;;;4997167;28;20442;-65
2022/09/24 06:13:33;;;;;;;9.90;2.95;;;;;;;;;;4994249;28;20077;-65
2022/09/24 06:16:09;;;;;;;6.35;2.75;;;;;;;;;;4999554;28;21109;-65
2022/09/24 06:18:39;;;;;;;13.68;3.25;;;;;;;;;;4998887;28;20051;-65
2022/09/24 06:21:07;;;;;;;7.68;2.97;;;;;;;;;;4992787;28;20164;-65
2022/09/24 06:23:36;;;;;;;10.05;2.80;;;;;;;;;;4992963;28;20137;-65
2022/09/24 06:26:04;;;;;;;11.02;2.90;;;;;;;;;;4997301;28;20132;-64
2022/09/24 06:28:30;;;;;;;5.85;2.50;;;;;;;;;;4996013;28;20860;-64
2022/09/24 06:30:58;;;;;;;6.85;2.80;;;;;;;;;;4996512;28;20141;-63
2022/09/24 06:33:24;;;;;;;3.35;2.55;;;;;;;;;;4995905;28;20047;-63
2022/09/24 06:35:49;;;;;;;3.85;2.72;;;;;;;;;;5005571;28;20054;-63
2022/09/24 06:38:16;;;;;;;5.00;2.75;;;;;;;;;;4992337;28;20045;-62
2022/09/24 06:40:44;;;;;;;4.70;3.00;;;;;;;;;;4993248;28;20481;-65
2022/09/24 06:43:10;;;;;;;4.18;2.60;;;;;;;;;;4996890;28;20077;-63
2022/09/24 06:45:36;;;;;;;3.42;2.67;;;;;;;;;;4992281;28;20038;-64
2022/09/24 06:48:04;;;;;;;4.75;2.70;;;;;;;;;;4997864;28;20403;-63
2022/09/24 06:50:31;;;;;;;4.05;2.30;;;;;;;;;;4992701;28;20137;-63
2022/09/24 06:52:57;;;;;;;4.82;2.85;;;;;;;;;;4996837;28;20112;-64
2022/09/24 06:55:23;;;;;;;6.78;2.83;;;;;;;;;;4996088;28;20029;-63
2022/09/24 06:57:48;;;;;;;4.75;2.55;;;;;;;;;;4999397;28;20684;-63
2022/09/24 07:00:16;;;;;;;6.65;2.50;;;;;;;;;;5001248;28;20053;-63
2022/09/24 07:02:41;;;;;;;6.05;2.85;;;;;;;;;;4990505;28;20035;-65
2022/09/24 07:05:08;;;;;;;4.38;2.78;;;;;;;;;;5000852;28;20046;-64
2022/09/24 07:07:34;;;;;;;4.30;2.50;;;;;;;;;;4993274;28;20062;-64
2022/09/24 07:10:05;;;;;;;5.07;2.53;;;;;;;;;;4995093;28;20512;-65
2022/09/24 07:12:31;;;;;;;2.72;2.30;;;;;;;;;;4994422;28;20149;-63
2022/09/24 07:14:57;;;;;;;8.15;2.30;;;;;;;;;;4994136;28;20052;-62
2022/09/24 07:17:27;;;;;;;3.67;2.50;;;;;;;;;;4997604;28;20042;-65
2022/09/24 07:19:53;;;;;;;3.58;2.63;;;;;;;;;;4999843;28;20092;-64
2022/09/24 07:22:18;;;;;;;4.38;2.90;;;;;;;;;;4989497;28;20125;-65
2022/09/24 07:24:44;;;;;;;6.80;2.20;;;;;;;;;;4997589;28;20044;-63
2022/09/24 07:27:10;;;;;;;4.60;2.95;;;;;;;;;;4996477;28;20054;-63
2022/09/24 07:29:36;;;;;;;4.25;2.83;;;;;;;;;;4994576;28;20053;-63
2022/09/24 07:32:02;;;;;;;6.43;2.90;;;;;;;;;;5010256;28;20173;-63
2022/09/24 07:34:28;;;;;;;5.03;3.00;;;;;;;;;;4995746;28;20114;-63
2022/09/24 07:36:57;;;;;;;5.75;3.30;;;;;;;;;;4995023;28;20033;-63
2022/09/24 07:39:24;;;;;;;4.95;3.60;;;;;;;;;;4996546;28;20050;-63
2022/09/24 07:41:51;;;;;;;7.47;4.40;;;;;;;;;;4988521;28;20060;-63
2022/09/24 07:44:19;;;;;;;6.10;4.40;;;;;;;;;;4991602;28;20622;-64
2022/09/24 07:46:49;;;;;;;10.52;5.43;;;;;;;;;;4993483;28;20145;-64
2022/09/24 07:49:15;;;;;;;10.77;4.78;;;;;;;;;;4992864;28;20499;-63
2022/09/24 07:51:41;;;;;;;8.30;5.60;;;;;;;;;;4991657;28;20108;-64
2022/09/24 07:54:07;;;;;;;10.05;5.97;;;;;;;;;;4992325;28;20061;-63
2022/09/24 07:56:32;;;;;;;10.90;6.90;;;;;;;;;;4991217;28;20046;-63
2022/09/24 07:58:57;;;;;;;9.73;6.10;;;;;;;;;;4993584;28;20157;-63
2022/09/24 08:01:23;;;;;;;7.82;5.18;;;;;;;;;;4994990;28;21929;-63
2022/09/24 08:03:50;;;;;;;9.65;5.13;;;;;;;;;;4997574;28;20061;-64
2022/09/24 08:06:17;;;;;;;9.23;5.20;;;;;;;;;;4995299;28;20046;-64
2022/09/24 08:08:42;;;;;;;8.68;5.15;;;;;;;;;;4997030;28;20408;-63
2022/09/24 08:11:11;;;;;;;9.10;5.03;;;;;;;;;;4999168;28;20050;-63
2022/09/24 08:13:37;;;;;;;5.93;4.32;;;;;;;;;;5003179;28;20053;-64
2022/09/24 08:16:05;;;;;;;6.05;4.30;;;;;;;;;;4998714;28;20030;-64
2022/09/24 08:18:31;;;;;;;12.90;5.40;;;;;;;;;;4993316;28;20049;-64
2022/09/24 08:21:10;;;;;;;9.32;5.60;;;;;;;;;;4990573;28;20047;-64
2022/09/24 08:23:37;;;;;;;8.13;5.05;;;;;;;;;;4992222;28;20058;-64
2022/09/24 08:26:02;;;;;;;14.93;5.72;;;;;;;;;;4989548;28;20066;-63
2022/09/24 08:28:28;;;;;;;11.20;5.45;;;;;;;;;;4988515;28;20057;-64
2022/09/24 08:31:01;;;;;;;9.98;5.38;;;;;;;;;;4985748;28;20049;-64
2022/09/24 08:33:27;;;;;;;14.30;6.47;;;;;;;;;;4989354;28;20386;-65
2022/09/24 08:35:53;;;;;;;14.30;7.32;;;;;;;;;;4995263;28;20490;-65
2022/09/24 08:38:19;;;;;;;15.40;9.13;;;;;;;;;;4994316;28;20056;-65
2022/09/24 08:40:54;;;;;;;16.95;8.50;;;;;;;;;;4972095;28;20058;-65
2022/09/24 08:43:29;;;;;;;13.07;7.07;;;;;;;;;;4988167;28;20038;-64
2022/09/24 08:48:50;;;;;;;12.73;7.45;;;;;;;;;;4989363;28;20107;-65
2022/09/24 08:51:19;;;;;;;12.65;8.18;;;;;;;;;;4990513;28;20057;-65
2022/09/24 08:53:56;;;;;;;12.48;7.72;;;;;;;;;;4991441;28;20073;-65
2022/09/24 08:56:28;;;;;;;22.25;9.23;;;;;;;;;;4988541;28;20046;-65
2022/09/24 08:58:58;;;;;;;16.58;7.90;;;;;;;;;;4989837;28;20045;-66
2022/09/24 09:02:02;;;;;;;10.93;7.55;;;;;;;;;;4991239;28;20026;-65
2022/09/24 09:04:47;;;;;;;16.13;7.80;;;;;;;;;;4995934;28;20503;-66
2022/09/24 09:07:22;;;;;;;19.63;8.18;;;;;;;;;;4994176;28;20477;-65
2022/09/24 09:09:56;;;;;;;12.85;6.78;;;;;;;;;;4993697;28;20398;-65
2022/09/24 09:12:35;;;;;;;19.02;6.63;;;;;;;;;;4996940;28;20501;-65
2022/09/24 09:15:07;;;;;;;10.82;7.45;;;;;;;;;;4994601;28;20054;-65
2022/09/24 09:18:11;;;;;;;14.25;6.80;;;;;;;;;;4998644;28;20042;-66
2022/09/24 09:20:42;;;;;;;17.55;6.82;;;;;;;;;;4986892;28;20127;-65
2022/09/24 09:23:36;;;;;;;14.13;8.07;;;;;;;;;;4994370;28;20080;-66
2022/09/24 09:26:01;;;;;;;16.52;6.80;;;;;;;;;;4985983;28;20405;-65
2022/09/24 09:28:28;;;;;;;12.15;7.53;;;;;;;;;;4991150;28;20050;-66
2022/09/24 09:30:59;;;;;;;13.20;7.47;;;;;;;;;;4997185;28;20029;-67
2022/09/24 09:33:24;;;;;;;13.82;7.43;;;;;;;;;;4993346;28;20133;-67
2022/09/24 09:35:53;;;;;;;11.00;7.38;;;;;;;;;;4996914;28;20128;-58
2022/09/24 09:38:37;;;;;;;12.93;7.82;;;;;;;;;;4991452;28;20093;-59
2022/09/24 09:41:19;;;;;;;15.63;7.65;;;;;;;;;;4995824;28;20077;-58
2022/09/24 09:43:45;;;;;;;13.47;8.90;;;;;;;;;;4995313;28;20045;-58
2022/09/24 09:46:22;;;;;;;18.92;9.20;;;;;;;;;;4994452;28;20092;-59
2022/09/24 09:48:53;;;;;;;12.85;8.25;;;;;;;;;;4999970;28;20046;-58
2022/09/24 09:51:20;;;;;;;14.45;8.68;;;;;;;;;;4997065;28;20058;-60
2022/09/24 09:53:59;;;;;;;18.27;10.13;;;;;;;;;;4986650;28;20058;-59
2022/09/24 09:56:49;;;;;;;16.88;10.05;;;;;;;;;;4991698;28;20042;-59
2022/09/24 09:59:20;;;;;;;14.85;8.70;;;;;;;;;;5003853;28;20072;-60
2022/09/24 10:01:49;;;;;;;18.27;9.77;;;;;;;;;;4994343;28;20056;-61
2022/09/24 10:04:31;;;;;;;18.17;10.02;;;;;;;;;;5000008;28;20053;-59
2022/09/24 10:07:11;;;;;;;19.73;10.45;;;;;;;;;;4994994;28;20026;-58
2022/09/24 10:09:38;;;;;;;19.33;9.65;;;;;;;;;;4996538;28;20449;-59
2022/09/24 10:12:07;;;;;;;16.60;9.23;;;;;;;;;;5004196;28;20045;-61
2022/09/24 10:14:33;;;;;;;19.48;10.30;;;;;;;;;;5003969;28;20578;-61
2022/09/24 10:17:04;;;;;;;17.80;9.38;;;;;;;;;;4998329;28;20145;-61
2022/09/24 10:19:32;;;;;;;18.08;9.40;;;;;;;;;;5002765;28;20064;-61
2022/09/24 10:22:08;;;;;;;15.52;8.70;;;;;;;;;;4999525;28;20121;-61
2022/09/24 10:24:35;;;;;;;17.83;8.85;;;;;;;;;;4993488;28;20464;-60
2022/09/24 10:27:10;;;;;;;17.08;10.10;;;;;;;;;;5003782;28;20124;-61
2022/09/24 10:32:25;;;;;;;19.42;8.95;;;;;;;;;;4999779;28;20076;-60
2022/09/24 10:34:59;;;;;;;13.82;9.27;;;;;;;;;;4998128;28;20045;-56
2022/09/24 10:37:25;;;;;;;15.77;8.93;;;;;;;;;;4998861;28;20039;-60
2022/09/24 10:40:27;;;;;;;15.43;9.15;;;;;;;;;;4992517;28;20133;-60
2022/09/24 10:43:00;;;;;;;14.00;8.18;;;;;;;;;;4967913;28;20345;-58
2022/09/24 10:46:03;;;;;;;13.32;8.10;;;;;;;;;;5002502;28;20065;-57
2022/09/24 10:48:34;;;;;;;16.30;10.02;;;;;;;;;;5005605;28;20111;-59
2022/09/24 10:51:26;;;;;;;21.92;8.93;;;;;;;;;;4999103;28;20042;-60
2022/09/24 10:54:00;;;;;;;15.40;8.77;;;;;;;;;;4995793;28;20121;-59
2022/09/24 10:56:36;;;;;;;14.75;8.95;;;;;;;;;;5000021;28;20060;-60
2022/09/24 10:59:28;;;;;;;11.25;7.68;;;;;;;;;;4998068;28;20046;-59
2022/09/24 11:02:02;;;;;;;10.35;6.03;;;;;;;;;;4999000;28;20078;-58
2022/09/24 11:04:49;;;;;;;8.27;4.95;;;;;;;;;;4998823;28;20050;-60
2022/09/24 11:07:30;;;;;;;6.03;4.47;;;;;;;;;;5008172;28;20489;-61
2022/09/24 11:10:19;;;;;;;6.28;4.43;;;;;;;;;;5001418;28;20035;-59
2022/09/24 11:12:47;;;;;;;10.48;5.40;;;;;;;;;;5002252;28;20045;-59
2022/09/24 11:15:27;;;;;;;8.68;5.30;;;;;;;;;;4999713;28;20584;-59
2022/09/24 11:18:30;;;;;;;10.95;6.15;;;;;;;;;;4997961;28;20077;-60
2022/09/24 11:20:58;;;;;;;;;;;;;;;;;;5001315;28;20676;-58
2022/09/24 11:23:45;;;;;;;8.10;5.13;;;;;;;;;;5000515;28;19968;-61
2022/09/24 11:26:45;;;;;;;11.70;4.50;;;;;;;;;;4985930;28;20658;-59
2022/09/24 11:29:31;;;;;;;12.15;6.18;;;;;;;;;;4932901;28;20086;-59
2022/09/24 11:32:12;;;;;;;8.93;5.43;;;;;;;;;;4988894;28;20058;-58
2022/09/24 11:34:37;;;;;;;6.70;4.22;;;;;;;;;;4990617;28;20045;-59
2022/09/24 11:37:15;;;;;;;7.53;4.10;;;;;;;;;;4994497;28;20045;-59
2022/09/24 11:39:59;;;;;;;8.38;4.25;;;;;;;;;;4987024;28;20058;-60
2022/09/24 11:42:30;;;;;;;10.25;5.50;;;;;;;;;;4995020;28;20038;-60
2022/09/24 11:45:16;;;;;;;10.45;4.85;;;;;;;;;;4991082;28;20055;-61
2022/09/24 11:48:15;;;;;;;8.15;4.20;;;;;;;;;;4994459;28;20141;-59
2022/09/24 11:51:19;;;;;;;11.30;3.72;;;;;;;;;;4996414;28;20042;-59
2022/09/24 11:53:53;;;;;;;12.38;4.40;;;;;;;;;;4984481;28;20073;-61
2022/09/24 11:56:21;;;;;;;7.95;4.72;;;;;;;;;;4998161;28;20133;-61
2022/09/24 11:58:57;;;;;;;10.43;5.45;;;;;;;;;;4997222;28;20124;-59
2022/09/24 12:01:33;;;;;;;13.02;4.63;;;;;;;;;;4996141;28;20420;-60
2022/09/24 12:04:12;;;;;;;6.78;3.45;;;;;;;;;;4999050;28;20038;-60
2022/09/24 12:06:51;;;;;;;5.40;3.30;;;;;;;;;;4978989;28;20136;-61
2022/09/24 12:09:29;;;;;;;9.32;3.40;;;;;;;;;;4997678;28;20122;-59
2022/09/24 12:12:05;;;;;;;6.43;3.10;;;;;;;;;;4988848;28;20069;-59
2022/09/24 12:15:04;;;;;;;6.85;2.72;;;;;;;;;;4990923;28;20062;-59
2022/09/24 12:17:41;;;;;;;5.93;2.97;;;;;;;;;;4983625;28;20097;-59
2022/09/24 12:20:27;;;;;;;5.13;3.00;;;;;;;;;;4991424;28;20539;-61
2022/09/24 12:22:58;;;;;;;7.13;3.97;;;;;;;;;;4991139;28;20038;-60
2022/09/24 12:25:28;;;;;;;6.60;4.30;;;;;;;;;;4994565;28;20182;-60
2022/09/24 12:27:55;;;;;;;7.65;3.40;;;;;;;;;;4992109;28;20397;-60
2022/09/24 12:33:44;;;;;;;5.93;3.53;;;;;;;;;;4992837;28;20109;-59
2022/09/24 12:36:23;;;;;;;5.22;3.05;;;;;;;;;;4990022;28;20046;-60
2022/09/24 12:38:48;;;;;;;4.38;3.00;;;;;;;;;;4987576;28;20061;-61
2022/09/24 12:41:19;;;;;;;10.93;3.00;;;;;;;;;;4986174;28;20480;-60
2022/09/24 12:43:57;;;;;;;5.25;2.67;;;;;;;;;;4989060;28;20054;-60
2022/09/24 12:46:26;;;;;;;7.72;3.28;;;;;;;;;;4986735;28;20034;-59
2022/09/24 12:48:53;;;;;;;8.73;2.95;;;;;;;;;;4991457;28;20041;-60
2022/09/24 12:51:22;;;;;;;7.30;3.10;;;;;;;;;;4993266;28;20126;-60
2022/09/24 12:54:26;;;;;;;9.07;3.00;;;;;;;;;;4997858;28;20072;-59
2022/09/24 12:56:51;;;;;;;4.60;2.92;;;;;;;;;;4977186;28;20046;-60
2022/09/24 12:59:25;;;;;;;3.67;2.85;;;;;;;;;;4992862;28;20112;-59
2022/09/24 13:01:51;;;;;;;5.22;2.90;;;;;;;;;;4993646;28;20050;-58
2022/09/24 13:04:16;;;;;;;5.00;3.10;;;;;;;;;;4996401;28;20396;-59
2022/09/24 13:06:46;;;;;;;4.85;3.17;;;;;;;;;;4996626;28;20050;-59
2022/09/24 13:09:37;;;;;;;6.68;3.08;;;;;;;;;;4994769;28;20044;-60
2022/09/24 13:12:30;;;;;;;9.93;5.30;;;;;;;;;;4992827;28;20104;-59
2022/09/24 13:15:01;;;;;;;6.38;3.42;;;;;;;;;;4997641;28;20519;-61
2022/09/24 13:17:32;;;;;;;4.95;2.70;;;;;;;;;;4996749;28;20042;-59
2022/09/24 13:20:24;;;;;;;7.93;3.30;;;;;;;;;;4992309;28;20057;-61
2022/09/24 13:23:11;;;;;;;5.65;2.95;;;;;;;;;;4992306;28;20060;-59
2022/09/24 13:25:37;;;;;;;4.80;3.03;;;;;;;;;;4988636;28;20485;-59
2022/09/24 13:28:19;;;;;;;7.65;2.90;;;;;;;;;;4984108;28;20389;-60
2022/09/24 13:31:08;;;;;;;7.57;3.53;;;;;;;;;;4991090;28;20046;-59
2022/09/24 13:33:41;;;;;;;5.25;3.10;;;;;;;;;;4992343;28;20108;-59
2022/09/24 13:36:09;;;;;;;;;;;;;;;;;;4996396;28;20050;-59
2022/09/24 13:38:43;;;;;;;6.25;3.10;;;;;;;;;;4980821;28;20021;-60
2022/09/24 13:41:17;;;;;;;6.00;3.50;;;;;;;;;;4988585;28;20060;-59
2022/09/24 13:43:49;;;;;;;6.93;3.50;;;;;;;;;;4986962;28;20050;-59
2022/09/24 13:46:16;;;;;;;7.78;3.70;;;;;;;;;;4988646;28;20046;-60
2022/09/24 13:48:54;;;;;;;4.80;3.60;;;;;;;;;;4996191;28;20021;-59
2022/09/24 13:51:26;;;;;;;5.03;3.30;;;;;;;;;;4995122;28;20092;-60
2022/09/24 13:54:09;;;;;;;5.87;3.70;;;;;;;;;;4990818;28;20741;-61
2022/09/24 13:56:35;;;;;;;;;;;;;;;;;;4994775;28;20129;-58
2022/09/24 13:59:05;;;;;;;5.55;2.85;;;;;;;;;;4991084;28;20460;-61
2022/09/24 14:01:38;;;;;;;4.40;2.90;;;;;;;;;;4991679;28;20444;-60
2022/09/24 14:04:12;;;;;;;7.25;3.30;;;;;;;;;;4997826;28;20128;-59
2022/09/24 14:06:41;;;;;;;8.15;3.58;;;;;;;;;;4997358;28;20050;-59
2022/09/24 14:09:29;;;;;;;7.68;3.72;;;;;;;;;;4994025;28;20042;-61
2022/09/24 14:11:57;;;;;;;8.98;3.55;;;;;;;;;;4990751;28;20136;-59
2022/09/24 14:14:26;;;;;;;6.97;4.28;;;;;;;;;;5000914;28;20056;-59
2022/09/24 14:16:55;;;;;;;7.93;4.30;;;;;;;;;;4991180;28;20108;-58
2022/09/24 14:19:24;;;;;;;7.97;3.42;;;;;;;;;;4997375;28;20432;-60
2022/09/24 14:21:56;;;;;;;6.57;3.17;;;;;;;;;;5001405;28;20074;-59
2022/09/24 14:24:33;;;;;;;5.22;3.63;;;;;;;;;;5003490;28;20042;-60
2022/09/24 14:27:07;;;;;;;6.20;3.38;;;;;;;;;;5002204;28;20441;-59
2022/09/24 14:29:48;;;;;;;7.10;3.80;;;;;;;;;;5010693;28;20100;-58
2022/09/24 14:32:23;;;;;;;6.57;3.60;;;;;;;;;;4999013;28;20631;-59
2022/09/24 14:34:52;;;;;;;5.90;3.60;;;;;;;;;;5002379;28;20072;-59
2022/09/24 14:37:21;;;;;;;5.82;3.55;;;;;;;;;;5000226;28;20030;-59
2022/09/24 14:39:50;;;;;;;8.82;3.25;;;;;;;;;;4999770;28;20061;-58
2022/09/24 14:42:33;;;;;;;6.38;3.40;;;;;;;;;;5004638;28;20346;-60
2022/09/24 14:45:03;;;;;;;4.65;2.83;;;;;;;;;;4992994;28;20596;-59
2022/09/24 14:47:32;;;;;;;6.70;3.50;;;;;;;;;;5000654;28;20050;-60
2022/09/24 14:49:57;;;;;;;10.45;3.13;;;;;;;;;;5001265;28;20050;-60
2022/09/24 14:52:36;;;;;;;5.60;2.85;;;;;;;;;;5002027;28;20539;-60
2022/09/24 14:55:18;;;;;;;4.05;2.70;;;;;;;;;;4998719;28;20030;-60
2022/09/24 14:57:51;;;;;;;3.67;2.53;;;;;;;;;;5000892;28;20200;-58
2022/09/24 15:00:31;;;;;;;6.93;3.20;;;;;;;;;;4997563;28;20553;-59
2022/09/24 15:03:00;;;;;;;7.60;3.33;;;;;;;;;;4994499;28;20061;-58
2022/09/24 15:05:28;;;;;;;6.00;3.15;;;;;;;;;;4996073;28;20068;-59
2022/09/24 15:08:14;;;;;;;11.23;3.78;;;;;;;;;;4994481;28;20081;-57
2022/09/24 15:10:40;;;;;;;4.55;2.90;;;;;;;;;;5000043;28;20137;-60
2022/09/24 15:13:14;;;;;;;4.63;3.22;;;;;;;;;;4997566;28;20091;-58
2022/09/24 15:15:40;;;;;;;6.80;3.40;;;;;;;;;;4998495;28;20038;-60
2022/09/24 15:18:09;;;;;;;5.70;3.33;;;;;;;;;;4987202;28;22021;-58
2022/09/24 15:20:35;;;;;;;4.50;3.28;;;;;;;;;;4992497;28;20049;-60